WetterOnline ( https://www.wetteronline.de )

Wetter aktuell Artern

Aktuelles Wetter: Artern (166m)

6-stündlich | Neueste Meldungen
Ortszeit Temperatur Wetter
Do, 22.10. 8:00 13.6° C fast wolkenlos
Do, 22.10. 2:00 15.5° C wolkig
Mi, 21.10. 20:00 16.3° C leicht bewölkt
Mi, 21.10. 14:00 16.7° C bedeckt
Mi, 21.10. 8:00 10.5° C bewölkt
Mi, 21.10. 2:00 10.0° C bedeckt
Di, 20.10. 20:00 10.8° C leichter Regen
Di, 20.10. 14:00 14.2° C bedeckt
Ortszeit Temperatur Wetter
Do, 22.10. 11:30 17.8° C -
Do, 22.10. 11:20 17.8° C -
Do, 22.10. 11:10 16.5° C -
Do, 22.10. 11:00 15.7° C -
Do, 22.10. 10:50 15.7° C -
Do, 22.10. 10:40 15.5° C fast wolkenlos
Do, 22.10. 10:30 14.8° C wolkig
Do, 22.10. 10:00 14.3° C leicht bewölkt
Do, 22.10. 9:30 14.3° C leicht bewölkt
Do, 22.10. 9:00 13.3° C wolkig
Do, 22.10. 8:30 12.5° C wolkig
Do, 22.10. 8:00 13.6° C fast wolkenlos
Ortszeit Relative Feuchte Sichtweite
Do, 22.10. 8:00 78% 45 km
Do, 22.10. 2:00 66% 55 km
Mi, 21.10. 20:00 53% 55 km
Mi, 21.10. 14:00 58% 40 km
Mi, 21.10. 8:00 86% 45 km
Mi, 21.10. 2:00 92% 28 km
Di, 20.10. 20:00 87% 6 km
Di, 20.10. 14:00 58% 60 km
Ortszeit Relative Feuchte Sichtweite
Do, 22.10. 11:30 67% 50 km
Do, 22.10. 11:20 67% -
Do, 22.10. 11:10 71% -
Do, 22.10. 11:00 72% 45 km
Do, 22.10. 10:50 72% -
Do, 22.10. 10:40 73% -
Do, 22.10. 10:30 75% 45 km
Do, 22.10. 10:00 77% 45 km
Do, 22.10. 9:30 76% 45 km
Do, 22.10. 9:00 80% 45 km
Do, 22.10. 8:30 83% 45 km
Do, 22.10. 8:00 78% 45 km
Ortszeit Niederschlagsmenge Niederschlagsart
Do, 22.10. 8:00 0.0 l/m2 in 12 Std. -
Do, 22.10. 2:00 0.0 l/m2 in 6 Std. -
Mi, 21.10. 20:00 0.1 l/m2 in 12 Std. Regen
Mi, 21.10. 14:00 0.1 l/m2 in 6 Std. Regen
Mi, 21.10. 8:00 0.7 l/m2 in 12 Std. Regen
Mi, 21.10. 2:00 0.5 l/m2 in 6 Std. Regen
Di, 20.10. 20:00 0.6 l/m2 in 12 Std. Regen
Di, 20.10. 14:00 0.0 l/m2 in 6 Std. -
Ortszeit Niederschlagsmenge Niederschlagsart
Do, 22.10. 11:30 0.0 l/m2 in 1 Std. -
Do, 22.10. 11:20 keine Meldung -
Do, 22.10. 11:10 keine Meldung -
Do, 22.10. 11:00 0.0 l/m2 in 1 Std. -
Do, 22.10. 10:50 keine Meldung -
Do, 22.10. 10:40 keine Meldung -
Do, 22.10. 10:30 0.0 l/m2 in 1 Std. -
Do, 22.10. 10:00 0.0 l/m2 in 1 Std. -
Do, 22.10. 9:30 0.0 l/m2 in 1 Std. -
Do, 22.10. 9:00 0.0 l/m2 in 1 Std. -
Do, 22.10. 8:30 0.0 l/m2 in 1 Std. -
Do, 22.10. 8:00 0.0 l/m2 in 1 Std. -
Ortszeit Stärke Spitze Richtung
km/h Bft. km/h Grad Sektor
Do, 22.10. 8:00 13 3 44 240° SW
Do, 22.10. 2:00 20 4 41 220° SW
Mi, 21.10. 20:00 22 4 40 210° SW
Mi, 21.10. 14:00 7 2 18 220° SW
Mi, 21.10. 8:00 4 1 14 210° SW
Mi, 21.10. 2:00 4 1 14 50° NO
Di, 20.10. 20:00 7 2 25 230° SW
Di, 20.10. 14:00 14 3 22 190° S
Ortszeit Stärke Spitze Richtung
km/h Bft. km/h Grad Sektor
Do, 22.10. 11:30 14 3 29 230° SW
Do, 22.10. 11:20 14 3 - 230° SW
Do, 22.10. 11:10 4 1 - 240° SW
Do, 22.10. 11:00 9 2 17 250° W
Do, 22.10. 10:50 9 2 - 250° W
Do, 22.10. 10:40 9 2 - 240° SW
Do, 22.10. 10:30 9 2 15 220° SW
Do, 22.10. 10:00 11 2 29 240° SW
Do, 22.10. 9:30 13 3 28 210° SW
Do, 22.10. 9:00 4 1 14 270° W
Do, 22.10. 8:30 6 1 13 220° SW
Do, 22.10. 8:00 13 3 33 240° SW
Ortszeit Untergrenze Bedeckung Gattung
total tief tief mittel hoch
Do, 22.10. 8:00 10500 m 2/8 0/8 - - -
Do, 22.10. 2:00 4200 m 7/8 5/8 - - -
Mi, 21.10. 20:00 3300 m 3/8 3/8 - - -
Mi, 21.10. 14:00 3000 m 8/8 8/8 - - -
Mi, 21.10. 8:00 2400 m 8/8 7/8 - - -
Mi, 21.10. 2:00 2100 m 8/8 8/8 - - -
Di, 20.10. 20:00 1800 m 8/8 8/8 - - -
Di, 20.10. 14:00 6000 m 8/8 8/8 - - -
Ortszeit Bedeckungsgrad in Achtel und Wolkenuntergrenze
Do, 22.10. 11:30 -
Do, 22.10. 11:20 -
Do, 22.10. 11:10 -
Do, 22.10. 11:00 -
Do, 22.10. 10:50 -
Do, 22.10. 10:40 1(4200m)
Do, 22.10. 10:30 5(4200m) 5(8700m)
Do, 22.10. 10:00 1(4200m) 4(8400m)
Do, 22.10. 9:30 4(9000m) 5(10500m)
Do, 22.10. 9:00 6(9000m) 7(10500m)
Do, 22.10. 8:30 7(9000m)
Do, 22.10. 8:00 2(10500m)
Ortszeit Luftdruck NN (hPa) Tendenz (hPa in 3 Std.)
Do, 22.10. 8:00 1012 + 1,7
Do, 22.10. 2:00 1010 + 1,3
Mi, 21.10. 20:00 1008 + 0,2
Mi, 21.10. 14:00 1009 - 0,6
Mi, 21.10. 8:00 1010 - 0,9
Mi, 21.10. 2:00 1012 - 1,2
Di, 20.10. 20:00 1013 + 0,3
Di, 20.10. 14:00 1014 - 1,3
Ortszeit Luftdruck NN (hPa) Tendenz (hPa in 3 Std.)
Do, 22.10. 11:30 1014 + 1,6
Do, 22.10. 11:20 1014 keine Meldung
Do, 22.10. 11:10 1014 keine Meldung
Do, 22.10. 11:00 1015 + 2,2
Do, 22.10. 10:50 1015 keine Meldung
Do, 22.10. 10:40 1014 keine Meldung
Do, 22.10. 10:30 1014 + 2,1
Do, 22.10. 10:00 1014 + 2,3
Do, 22.10. 9:30 1013 + 1,6
Do, 22.10. 9:00 1013 + 1,5
Do, 22.10. 8:30 1013 + 1,6
Do, 22.10. 8:00 1012 + 1,7
Ortszeit Schneehöhe (cm)
Do, 22.10. 8:00 0
Do, 22.10. 2:00 0
Mi, 21.10. 20:00 0
Mi, 21.10. 14:00 0
Mi, 21.10. 8:00 0
Mi, 21.10. 2:00 0
Di, 20.10. 20:00 0
Di, 20.10. 14:00 0
Ortszeit Schneehöhe (cm)
Do, 22.10. 11:30 0
Do, 22.10. 11:20 0
Do, 22.10. 11:10 0
Do, 22.10. 11:00 0
Do, 22.10. 10:50 -
Do, 22.10. 10:40 -
Do, 22.10. 10:30 -
Do, 22.10. 10:00 0
Do, 22.10. 9:30 0
Do, 22.10. 9:00 0
Do, 22.10. 8:30 0
Do, 22.10. 8:00 0
Link zu dieser Seite / Seite empfehlen

Das Wetter in ...